createdAt,value
2019-02-17T00:04:30.476Z,102524.03
2019-02-17T00:09:32.728Z,102521.15
2019-02-17T00:14:34.293Z,102518.91
2019-02-17T00:19:35.933Z,102519.17
2019-02-17T00:24:37.581Z,102517.06
2019-02-17T00:29:39.137Z,102521.58
2019-02-17T00:34:40.711Z,102514.78
2019-02-17T00:39:42.305Z,102517.73
2019-02-17T00:44:44.006Z,102511.19
2019-02-17T00:49:45.612Z,102512.40
2019-02-17T00:54:47.191Z,102511.16
2019-02-17T00:59:48.791Z,102508.66
2019-02-17T01:04:50.333Z,102502.61
2019-02-17T01:09:51.973Z,102497.31
2019-02-17T01:14:54.018Z,102493.50
2019-02-17T01:19:56.078Z,102496.16
2019-02-17T01:24:57.716Z,102487.63
2019-02-17T01:29:59.278Z,102490.72
2019-02-17T01:35:00.935Z,102482.01
2019-02-17T01:40:03.291Z,102482.64
2019-02-17T01:45:05.469Z,102478.03
2019-02-17T01:50:07.340Z,102479.59
2019-02-17T01:55:09.054Z,102462.25
2019-02-17T02:00:10.899Z,102460.36
2019-02-17T02:05:12.464Z,102452.53
2019-02-17T02:10:14.061Z,102454.88
2019-02-17T02:15:15.612Z,102446.34
2019-02-17T02:20:19.515Z,102454.34
2019-02-17T02:25:21.101Z,102444.88
2019-02-17T02:30:23.254Z,102420.77
2019-02-17T02:35:24.846Z,102436.25
2019-02-17T02:40:26.820Z,102421.02
2019-02-17T02:45:28.382Z,102420.88
2019-02-17T02:50:29.961Z,102416.64
2019-02-17T02:55:31.526Z,102401.03
2019-02-17T03:00:33.122Z,102391.91
2019-02-17T03:05:35.488Z,102390.45
2019-02-17T03:10:37.206Z,102388.02
2019-02-17T03:15:38.825Z,102386.52
2019-02-17T03:20:40.509Z,102375.73
2019-02-17T03:25:45.171Z,102366.03
2019-02-17T03:30:46.369Z,102361.80
2019-02-17T03:35:48.589Z,102358.16
2019-02-17T03:40:50.878Z,102357.08
2019-02-17T03:45:52.543Z,102359.13
2019-02-17T03:50:54.154Z,102347.38
2019-02-17T03:55:56.124Z,102348.92
2019-02-17T04:00:58.000Z,102346.28
2019-02-17T04:05:59.595Z,102349.88
2019-02-17T04:11:01.143Z,102346.74
2019-02-17T04:16:02.704Z,102340.55
2019-02-17T04:21:04.313Z,102343.23
2019-02-17T04:26:05.857Z,102337.12
2019-02-17T04:31:07.438Z,102329.97
2019-02-17T04:36:09.019Z,102333.69
2019-02-17T04:41:11.023Z,102337.08
2019-02-17T04:46:12.623Z,102330.34
2019-02-17T04:51:14.192Z,102332.56
2019-02-17T04:56:16.184Z,102325.07
2019-02-17T05:01:17.767Z,102330.39
2019-02-17T05:06:19.433Z,102321.19
2019-02-17T05:11:21.006Z,102320.77
2019-02-17T05:16:22.792Z,102310.02
2019-02-17T05:21:24.326Z,102304.70
2019-02-17T05:26:26.267Z,102299.23
2019-02-17T05:31:27.835Z,102309.60
2019-02-17T05:36:29.398Z,102296.34
2019-02-17T05:41:30.982Z,102295.30
2019-02-17T05:46:32.934Z,102290.95
2019-02-17T05:51:34.928Z,102285.47
2019-02-17T05:56:36.485Z,102278.23
2019-02-17T06:01:38.094Z,102285.77
2019-02-17T06:06:39.646Z,102278.66
2019-02-17T06:11:41.696Z,102268.61
2019-02-17T06:16:43.323Z,102271.38
2019-02-17T06:21:44.947Z,102268.15
2019-02-17T06:26:46.555Z,102266.60
2019-02-17T06:31:48.140Z,102268.52
2019-02-17T06:36:49.767Z,102266.14
2019-02-17T06:41:51.354Z,102274.77
2019-02-17T06:46:53.014Z,102269.99
2019-02-17T06:51:55.069Z,102268.70
2019-02-17T06:56:56.696Z,102273.30
2019-02-17T07:01:58.355Z,102275.59
2019-02-17T07:07:00.315Z,102272.22
2019-02-17T07:12:01.979Z,102276.19
2019-02-17T07:17:03.571Z,102280.62
2019-02-17T07:22:05.216Z,102278.31
2019-02-17T07:27:06.782Z,102266.44
2019-02-17T07:32:08.702Z,102269.58
2019-02-17T07:37:10.654Z,102264.45
2019-02-17T07:42:12.362Z,102265.70
2019-02-17T07:47:14.397Z,102262.89
2019-02-17T07:52:16.285Z,102252.70
2019-02-17T07:57:17.908Z,102258.42
2019-02-17T08:02:19.558Z,102255.89
2019-02-17T08:07:22.089Z,102249.56
2019-02-17T08:12:23.698Z,102246.39
2019-02-17T08:17:25.259Z,102243.45
2019-02-17T08:22:26.865Z,102244.95
2019-02-17T08:27:28.497Z,102242.02
2019-02-17T08:32:30.154Z,102240.63
2019-02-17T08:37:32.159Z,102236.77
2019-02-17T08:42:33.780Z,102233.69
2019-02-17T08:47:35.367Z,102233.05
2019-02-17T08:52:37.376Z,102224.00
2019-02-17T08:57:39.122Z,102225.05
2019-02-17T09:02:41.056Z,102216.75
2019-02-17T09:07:42.665Z,102213.52
2019-02-17T09:12:44.286Z,102214.80
2019-02-17T09:17:46.977Z,102205.38
2019-02-17T09:22:48.549Z,102198.47
2019-02-17T09:27:50.129Z,102198.00
2019-02-17T09:32:51.735Z,102202.42
2019-02-17T09:37:53.517Z,102203.06
2019-02-17T09:42:55.138Z,102192.32
2019-02-17T09:47:57.153Z,102191.02
2019-02-17T09:52:58.869Z,102189.55
2019-02-17T09:58:00.589Z,102188.95
2019-02-17T10:03:02.254Z,102179.78
2019-02-17T10:08:03.891Z,102184.57
2019-02-17T10:13:05.560Z,102182.66
2019-02-17T10:18:07.153Z,102169.25
2019-02-17T10:23:08.910Z,102170.19
2019-02-17T10:28:10.518Z,102174.09
2019-02-17T10:33:12.135Z,102171.25
2019-02-17T10:38:14.001Z,102166.39
2019-02-17T10:43:15.597Z,102158.97
2019-02-17T10:48:17.241Z,102161.34
2019-02-17T10:53:19.239Z,102155.52
2019-02-17T10:58:20.799Z,102153.38
2019-02-17T11:03:22.514Z,102143.73
2019-02-17T11:08:24.103Z,102138.76
2019-02-17T11:13:25.705Z,102142.36
2019-02-17T11:18:27.246Z,102133.11
2019-02-17T11:23:29.232Z,102123.80
2019-02-17T11:28:30.949Z,102117.36
2019-02-17T11:33:32.523Z,102112.67
2019-02-17T11:38:34.225Z,102105.28
2019-02-17T11:43:35.809Z,102105.73
2019-02-17T11:48:37.783Z,102102.48
2019-02-17T11:53:39.432Z,102093.41
2019-02-17T11:58:41.184Z,102083.94
2019-02-17T12:03:42.768Z,102088.31
2019-02-17T12:08:46.091Z,102088.16
2019-02-17T12:13:49.967Z,102080.44
2019-02-17T12:18:51.578Z,102084.13
2019-02-17T12:23:53.290Z,102067.23
2019-02-17T12:28:54.900Z,102058.52
2019-02-17T12:33:56.711Z,102044.96
2019-02-17T12:39:00.732Z,102041.02
2019-02-17T12:44:02.399Z,102021.58
2019-02-17T12:49:05.552Z,102024.31
2019-02-17T12:54:07.164Z,102027.93
2019-02-17T12:59:08.801Z,102031.52
2019-02-17T13:04:10.424Z,102011.26
2019-02-17T13:09:12.064Z,102021.30
2019-02-17T13:14:13.733Z,102018.54
2019-02-17T13:19:15.369Z,102013.85
2019-02-17T13:24:17.036Z,102007.27
2019-02-17T13:29:18.614Z,101987.61
2019-02-17T13:34:20.758Z,101993.73
2019-02-17T13:39:22.923Z,101986.80
2019-02-17T13:44:24.511Z,101991.48
2019-02-17T13:49:26.115Z,101974.52
2019-02-17T13:54:27.693Z,101965.63
2019-02-17T13:59:29.370Z,101957.23
2019-02-17T14:04:30.945Z,101957.73
2019-02-17T14:09:33.440Z,101942.63
2019-02-17T14:14:35.502Z,101930.79
2019-02-17T14:19:37.062Z,101928.79
2019-02-17T14:24:38.713Z,101925.42
2019-02-17T14:29:40.411Z,101913.38
2019-02-17T14:34:42.028Z,101922.75
2019-02-17T14:39:43.625Z,101918.97
2019-02-17T14:44:45.278Z,101921.61
2019-02-17T14:49:47.465Z,101953.84
2019-02-17T14:54:49.440Z,101948.41
2019-02-17T14:59:51.026Z,101930.34
2019-02-17T15:04:52.778Z,101936.44
2019-02-17T15:09:54.370Z,101932.46
2019-02-17T15:14:56.047Z,101923.70
2019-02-17T15:19:57.985Z,101926.22
2019-02-17T15:24:59.589Z,101913.95
2019-02-17T15:30:01.307Z,101913.59
2019-02-17T15:35:04.002Z,101912.23
2019-02-17T15:40:06.143Z,101905.80
2019-02-17T15:45:08.232Z,101898.92
2019-02-17T15:50:10.988Z,101900.08
2019-02-17T15:55:12.695Z,101891.20
2019-02-17T16:00:14.429Z,101893.93
2019-02-17T16:05:16.170Z,101895.05
2019-02-17T16:10:18.150Z,101892.57
2019-02-17T16:15:19.771Z,101888.28
2019-02-17T16:20:21.505Z,101890.27
2019-02-17T16:25:24.982Z,101900.83
2019-02-17T16:30:26.578Z,101895.29
2019-02-17T16:35:28.234Z,101888.80
2019-02-17T16:40:29.807Z,101894.73
2019-02-17T16:45:31.427Z,101899.27
2019-02-17T16:50:33.021Z,101895.03
2019-02-17T16:55:34.728Z,101890.33
2019-02-17T17:00:36.281Z,101883.02
2019-02-17T17:05:37.868Z,101883.53
2019-02-17T17:10:39.668Z,101879.19
2019-02-17T17:15:41.542Z,101889.30
2019-02-17T17:20:44.052Z,101901.89
2019-02-17T17:25:46.638Z,101916.88
2019-02-17T17:30:48.272Z,101927.93
2019-02-17T17:35:49.881Z,101932.48
2019-02-17T17:40:52.291Z,101932.41
2019-02-17T17:45:53.921Z,101935.85
2019-02-17T17:50:56.089Z,101939.75
2019-02-17T17:55:57.789Z,101956.34
2019-02-17T18:01:00.513Z,101952.63
2019-02-17T18:06:02.210Z,101964.11
2019-02-17T18:11:03.840Z,101965.06
2019-02-17T18:16:05.827Z,101960.97
2019-02-17T18:21:07.491Z,101962.60
2019-02-17T18:26:09.210Z,101965.92
2019-02-17T18:31:11.228Z,101968.95
2019-02-17T18:36:12.862Z,101977.58
2019-02-17T18:41:16.697Z,101979.32
2019-02-17T18:46:18.380Z,101973.72
2019-02-17T18:51:20.094Z,101978.70
2019-02-17T18:56:21.675Z,101976.94
2019-02-17T19:01:23.664Z,101986.36
2019-02-17T19:06:25.255Z,101983.83
2019-02-17T19:11:26.982Z,101980.59
2019-02-17T19:16:28.731Z,101983.69
2019-02-17T19:21:30.733Z,101986.89
2019-02-17T19:26:32.368Z,101990.20
2019-02-17T19:31:34.029Z,102001.84
2019-02-17T19:36:35.575Z,102003.42
2019-02-17T19:41:37.184Z,102008.09
2019-02-17T19:46:38.872Z,102004.31
2019-02-17T19:51:40.483Z,101999.73
2019-02-17T19:56:42.105Z,102006.22
2019-02-17T20:01:43.673Z,102013.09
2019-02-17T20:06:45.733Z,102013.81
2019-02-17T20:11:47.367Z,102005.36
2019-02-17T20:16:48.941Z,102001.27
2019-02-17T20:21:50.796Z,102004.09
2019-02-17T20:26:52.359Z,102006.22
2019-02-17T20:31:53.934Z,102009.66
2019-02-17T20:36:56.051Z,102012.47
2019-02-17T20:41:58.871Z,102005.12
2019-02-17T20:47:00.441Z,102010.03
2019-02-17T20:52:02.003Z,102012.95
2019-02-17T20:57:03.664Z,102003.59
2019-02-17T21:02:05.746Z,102014.06
2019-02-17T21:07:07.619Z,102015.09
2019-02-17T21:12:10.517Z,102013.98
2019-02-17T21:17:12.196Z,102011.03
2019-02-17T21:22:13.874Z,102010.34
2019-02-17T21:27:20.002Z,102013.55
2019-02-17T21:32:21.636Z,102015.27
2019-02-17T21:37:23.626Z,102008.30
2019-02-17T21:42:25.211Z,102015.94
2019-02-17T21:47:26.954Z,102011.59
2019-02-17T21:52:29.024Z,102018.33
2019-02-17T21:57:30.715Z,102020.21
2019-02-17T22:02:32.379Z,102023.67
2019-02-17T22:07:35.107Z,102030.98
2019-02-17T22:12:37.077Z,102031.25
2019-02-17T22:17:38.807Z,102027.59
2019-02-17T22:22:40.504Z,102031.20
2019-02-17T22:27:43.055Z,102039.11
2019-02-17T22:32:44.614Z,102033.75
2019-02-17T22:37:46.242Z,102028.38
2019-02-17T22:42:48.254Z,102022.87
2019-02-17T22:47:49.797Z,102020.52
2019-02-17T22:52:51.529Z,102015.14
2019-02-17T22:57:53.143Z,102025.36
2019-02-17T23:02:55.218Z,102018.12
2019-02-17T23:07:57.338Z,102014.14
2019-02-17T23:12:58.978Z,102013.16
2019-02-17T23:18:00.578Z,102013.10
2019-02-17T23:23:02.647Z,102018.77
2019-02-17T23:28:04.655Z,102014.50
2019-02-17T23:33:06.215Z,102021.47
2019-02-17T23:38:07.868Z,102019.97
2019-02-17T23:43:09.465Z,102022.51
2019-02-17T23:48:11.088Z,102029.87
2019-02-17T23:53:12.657Z,102027.65
2019-02-17T23:58:14.266Z,102025.44
